Comunidad Capiro, Puerto Rico
Current Conditions -  °F | °C
As of 10:50 PM on Friday 28 Nov 2014 (Local Time) from TJBQ Reporting Station
Scattered Clouds Scattered Clouds  
Wind Chill: 73°   Ceiling: Unl
Heat Index: 73°   Visibility: 10mi
Dew Point: 70°   Wind: 3mph
Humidity: 88%   Direction: 150°SSE
Pressure: 29.98"   Gusts: NA
Location:  18.4951°N, 67.0273°W
Report Text: TJBQ 290250Z 15003KT 10SM SCT023 SCT028 SCT034 23/21 A2998 RMK RWY08 ATIS F
Loading
Personal Weather Stations






























Interactive Weather Map New forecast layout! Learn more

10-Day Weather Forecast

Advertisements
Track Severe Weather on mobile